Time;durP1;ratioP1;P1;durP2;ratioP2;P2;SDS_P1;SDS_P2;PMS_P1;PMS_P2;Temp;Humidity;BMP_temperature;BMP_pressure;BME280_temperature;BME280_humidity;BME280_pressure;Samples;Min_cycle;Max_cycle;Signal;HPM_P1;HPM_P2
2024/03/13 00:00:00;;;;;;;12.27;6.17;;;7.00;89.70;;;;;;5052761;28;20419;-72
2024/03/13 00:02:28;;;;;;;9.03;4.80;;;7.00;89.50;;;;;;5047836;28;20509;-72
2024/03/13 00:04:55;;;;;;;12.17;5.50;;;7.00;89.60;;;;;;5053505;28;20988;-70
2024/03/13 00:07:21;;;;;;;12.00;5.20;;;6.90;89.50;;;;;;5050374;28;20442;-72
2024/03/13 00:09:46;;;;;;;10.70;5.60;;;6.90;89.50;;;;;;5054703;28;20567;-71
2024/03/13 00:12:16;;;;;;;7.47;4.33;;;6.80;89.50;;;;;;5049041;28;20219;-73
2024/03/13 00:14:49;;;;;;;11.30;5.03;;;6.80;89.30;;;;;;5052218;28;20184;-73
2024/03/13 00:17:16;;;;;;;8.53;4.63;;;6.80;89.00;;;;;;5053368;28;20438;-71
2024/03/13 00:19:42;;;;;;;8.60;4.57;;;6.80;89.20;;;;;;5051457;28;20447;-70
2024/03/13 00:22:08;;;;;;;8.77;4.03;;;6.80;89.50;;;;;;5051571;28;20486;-71
2024/03/13 00:24:34;;;;;;;7.10;3.83;;;6.80;89.30;;;;;;5056960;28;20449;-71
2024/03/13 00:27:00;;;;;;;6.50;3.80;;;6.80;89.30;;;;;;5053195;28;20514;-71
2024/03/13 00:29:25;;;;;;;6.30;3.50;;;6.80;89.30;;;;;;5052389;28;20173;-70
2024/03/13 00:31:52;;;;;;;6.97;3.67;;;6.80;89.30;;;;;;5046958;28;20204;-72
2024/03/13 00:34:18;;;;;;;5.37;3.27;;;6.80;89.30;;;;;;5052847;28;20230;-72
2024/03/13 00:36:43;;;;;;;3.97;2.70;;;6.80;89.50;;;;;;5053535;28;20430;-70
2024/03/13 00:39:10;;;;;;;4.80;2.70;;;6.80;89.50;;;;;;5051060;28;20415;-71
2024/03/13 00:41:36;;;;;;;5.47;3.50;;;6.80;89.50;;;;;;5047582;28;20212;-71
2024/03/13 00:44:03;;;;;;;5.10;2.60;;;6.80;89.20;;;;;;5049327;28;20443;-72
2024/03/13 00:46:29;;;;;;;4.23;2.70;;;6.70;89.20;;;;;;5051113;28;20420;-71
2024/03/13 00:48:54;;;;;;;4.77;2.97;;;6.80;89.30;;;;;;5051109;28;20407;-72
2024/03/13 00:51:20;;;;;;;5.33;3.10;;;6.80;89.50;;;;;;5045925;28;20203;-71
2024/03/13 00:53:46;;;;;;;6.13;2.97;;;6.80;89.60;;;;;;5052862;28;20244;-72
2024/03/13 00:56:11;;;;;;;4.63;2.67;;;6.80;89.50;;;;;;5053684;28;20521;-72
2024/03/13 00:58:37;;;;;;;5.80;3.20;;;6.80;89.60;;;;;;5053264;28;20426;-72
2024/03/13 01:01:03;;;;;;;6.43;3.00;;;6.80;89.50;;;;;;5048316;28;20705;-71
2024/03/13 01:03:29;;;;;;;4.87;2.67;;;6.80;89.50;;;;;;5060741;28;20673;-72
2024/03/13 01:05:56;;;;;;;5.00;3.00;;;6.80;89.50;;;;;;5061238;28;20188;-72
2024/03/13 01:08:24;;;;;;;5.10;2.83;;;6.80;89.60;;;;;;5064050;28;20447;-71
2024/03/13 01:10:52;;;;;;;4.27;2.53;;;6.80;89.60;;;;;;5048877;28;22225;-72
2024/03/13 01:13:19;;;;;;;3.57;2.13;;;6.90;89.70;;;;;;5050809;28;20522;-70
2024/03/13 01:15:45;;;;;;;4.53;2.23;;;6.90;89.70;;;;;;5050168;28;20437;-72
2024/03/13 01:18:11;;;;;;;5.70;2.23;;;6.90;89.60;;;;;;5050321;28;20476;-72
2024/03/13 01:20:37;;;;;;;6.63;1.90;;;6.90;89.30;;;;;;5044909;28;20539;-72
2024/03/13 01:23:02;;;;;;;3.47;2.10;;;6.90;89.30;;;;;;5050275;28;20239;-71
2024/03/13 01:25:28;;;;;;;3.20;2.00;;;6.90;89.30;;;;;;5049321;28;20184;-73
2024/03/13 01:27:54;;;;;;;3.50;1.97;;;6.90;89.20;;;;;;5050245;28;20180;-71
2024/03/13 01:30:21;;;;;;;2.50;1.80;;;6.90;89.30;;;;;;5051894;28;20200;-73
2024/03/13 01:32:47;;;;;;;3.90;1.73;;;6.90;89.50;;;;;;5044783;28;20267;-73
2024/03/13 01:35:13;;;;;;;4.30;1.60;;;6.90;89.50;;;;;;5050297;28;20430;-72
2024/03/13 01:37:58;;;;;;;2.00;1.60;;;6.90;89.50;;;;;;5051344;28;20422;-71
2024/03/13 01:54:54;;;;;;;3.13;1.57;;;6.80;89.50;;;;;;5048061;28;20418;-71
2024/03/13 01:57:29;;;;;;;1.60;1.33;;;6.80;89.30;;;;;;5045092;28;20418;-73
2024/03/13 02:02:40;;;;;;;2.27;1.20;;;6.80;89.50;;;;;;5041835;28;20923;-71
2024/03/13 02:05:06;;;;;;;2.40;1.30;;;6.80;89.50;;;;;;5050408;28;20502;-72
2024/03/13 02:07:32;;;;;;;2.67;1.37;;;6.80;89.60;;;;;;5048471;28;20249;-72
2024/03/13 02:09:59;;;;;;;2.17;1.37;;;6.90;89.70;;;;;;5047368;28;20538;-72
2024/03/13 02:12:26;;;;;;;1.80;0.93;;;6.90;89.70;;;;;;5045253;28;20204;-72
2024/03/13 02:14:52;;;;;;;2.30;1.30;;;6.90;89.70;;;;;;5057067;28;20414;-74
2024/03/13 02:17:18;;;;;;;3.07;1.50;;;7.00;89.70;;;;;;5056476;28;20869;-71
2024/03/13 02:19:45;;;;;;;2.80;1.20;;;7.00;89.60;;;;;;5049102;28;21059;-71
2024/03/13 02:22:13;;;;;;;2.03;1.20;;;7.00;89.70;;;;;;5044236;28;20471;-73
2024/03/13 02:24:39;;;;;;;2.90;1.20;;;7.00;89.60;;;;;;5053737;28;20441;-71
2024/03/13 02:27:11;;;;;;;1.83;1.23;;;7.10;89.60;;;;;;5050142;28;20415;-71
2024/03/13 02:29:41;;;;;;;2.20;1.07;;;7.00;89.50;;;;;;5052647;28;20181;-76
2024/03/13 02:32:07;;;;;;;2.47;1.10;;;7.00;89.60;;;;;;5047348;28;20465;-72
2024/03/13 02:34:34;;;;;;;2.50;1.67;;;7.10;89.60;;;;;;5050952;28;20427;-72
2024/03/13 02:37:00;;;;;;;1.90;1.10;;;7.00;89.60;;;;;;5049772;28;20427;-72
2024/03/13 02:39:26;;;;;;;1.87;1.10;;;7.10;89.50;;;;;;5050154;28;20427;-71
2024/03/13 02:41:52;;;;;;;3.93;1.27;;;7.00;89.00;;;;;;5040104;28;21017;-74
2024/03/13 02:44:18;;;;;;;2.70;1.03;;;7.00;88.70;;;;;;5049627;28;20415;-73
2024/03/13 02:46:43;;;;;;;1.03;0.90;;;7.00;88.70;;;;;;5046983;28;20511;-72
2024/03/13 02:49:09;;;;;;;1.40;1.10;;;7.00;88.90;;;;;;5048906;28;20212;-71
2024/03/13 02:51:35;;;;;;;1.83;1.20;;;7.00;89.00;;;;;;5045788;28;20219;-71
2024/03/13 02:54:01;;;;;;;1.60;0.90;;;7.00;89.00;;;;;;5048886;28;20431;-72
2024/03/13 02:56:26;;;;;;;1.73;1.00;;;6.90;89.00;;;;;;5050282;28;20177;-73
2024/03/13 02:58:52;;;;;;;2.67;1.30;;;6.90;89.00;;;;;;5049973;28;20594;-73
2024/03/13 03:01:18;;;;;;;1.47;1.27;;;7.00;89.20;;;;;;5040051;28;20228;-70
2024/03/13 03:03:43;;;;;;;2.10;1.60;;;7.00;89.20;;;;;;5052545;28;20181;-71
2024/03/13 03:06:09;;;;;;;1.40;1.10;;;7.00;89.20;;;;;;5047000;28;20212;-72
2024/03/13 03:08:37;;;;;;;1.50;1.10;;;7.00;89.20;;;;;;5056954;28;20184;-72
2024/03/13 03:11:03;;;;;;;1.97;1.23;;;6.90;89.20;;;;;;5044859;28;20209;-74
2024/03/13 03:13:29;;;;;;;1.63;1.10;;;6.90;89.20;;;;;;5055653;28;20443;-72
2024/03/13 03:15:55;;;;;;;2.10;1.30;;;6.90;89.00;;;;;;5062801;28;20446;-72
2024/03/13 03:18:22;;;;;;;2.73;1.80;;;6.90;89.00;;;;;;5063814;28;20411;-74
2024/03/13 03:20:47;;;;;;;3.73;1.90;;;6.90;89.00;;;;;;5056541;28;20217;-74
2024/03/13 03:23:14;;;;;;;1.40;1.20;;;6.90;89.00;;;;;;5053422;28;20434;-71
2024/03/13 03:25:40;;;;;;;2.00;1.43;;;6.90;89.00;;;;;;5055979;28;20226;-71
2024/03/13 03:28:05;;;;;;;3.00;1.67;;;6.90;89.00;;;;;;5052380;28;20471;-73
2024/03/13 03:30:31;;;;;;;3.73;1.70;;;6.80;89.00;;;;;;5052650;28;20184;-72
2024/03/13 03:32:58;;;;;;;2.40;1.70;;;6.80;88.70;;;;;;5051937;28;20247;-72
2024/03/13 03:35:24;;;;;;;1.83;1.50;;;6.80;88.70;;;;;;5054239;28;20176;-72
2024/03/13 03:37:51;;;;;;;3.07;1.50;;;6.80;88.70;;;;;;5052618;28;20443;-73
2024/03/13 03:40:17;;;;;;;2.27;1.47;;;6.80;88.70;;;;;;5046990;28;20459;-75
2024/03/13 03:42:43;;;;;;;2.90;1.50;;;6.80;88.90;;;;;;5046926;28;20603;-73
2024/03/13 03:45:08;;;;;;;3.13;1.73;;;6.70;88.70;;;;;;5049643;28;20514;-75
2024/03/13 03:47:35;;;;;;;3.03;2.00;;;6.80;88.90;;;;;;5053391;28;20620;-70
2024/03/13 03:50:01;;;;;;;8.30;2.30;;;6.70;89.00;;;;;;5051835;28;20612;-72
2024/03/13 03:52:27;;;;;;;3.20;1.60;;;6.80;89.20;;;;;;5041352;28;20450;-70
2024/03/13 03:54:52;;;;;;;1.97;1.53;;;6.70;89.00;;;;;;5051413;28;20439;-70
2024/03/13 03:57:19;;;;;;;5.43;1.77;;;6.70;89.00;;;;;;5052011;28;20181;-72
2024/03/13 03:59:45;;;;;;;2.30;1.60;;;6.70;89.20;;;;;;5049417;28;20548;-71
2024/03/13 04:02:16;;;;;;;2.90;1.90;;;6.70;89.00;;;;;;5042250;28;20481;-72
2024/03/13 04:04:42;;;;;;;2.07;1.60;;;6.60;89.20;;;;;;5049354;28;21031;-72
2024/03/13 04:07:10;;;;;;;3.50;2.07;;;6.50;89.20;;;;;;5046328;28;20546;-73
2024/03/13 04:09:36;;;;;;;2.60;1.80;;;6.50;89.50;;;;;;5048944;28;20431;-69
2024/03/13 04:12:02;;;;;;;3.40;1.57;;;6.50;89.60;;;;;;5047545;28;20995;-72
2024/03/13 04:14:28;;;;;;;2.00;1.70;;;6.50;89.70;;;;;;5049929;28;20250;-71
2024/03/13 04:16:54;;;;;;;2.97;1.60;;;6.50;89.90;;;;;;5047925;28;20466;-71
2024/03/13 04:19:21;;;;;;;3.67;1.93;;;6.50;89.90;;;;;;5049343;28;20286;-71
2024/03/13 04:21:47;;;;;;;3.10;1.90;;;6.60;90.00;;;;;;5044930;28;20478;-73
2024/03/13 04:24:13;;;;;;;2.10;1.70;;;6.50;90.00;;;;;;5051350;28;20445;-74
2024/03/13 04:26:39;;;;;;;2.60;1.57;;;6.60;90.00;;;;;;5050629;28;20915;-73
2024/03/13 04:29:05;;;;;;;2.07;1.60;;;6.70;90.00;;;;;;5049417;28;20435;-72
2024/03/13 04:31:32;;;;;;;3.93;2.00;;;6.80;90.00;;;;;;5041589;28;20479;-72
2024/03/13 04:33:59;;;;;;;2.30;1.60;;;6.80;90.00;;;;;;5048099;28;20185;-73
2024/03/13 04:36:24;;;;;;;3.60;2.10;;;6.90;90.00;;;;;;5050294;28;20987;-71
2024/03/13 04:38:53;;;;;;;2.33;1.83;;;6.90;89.90;;;;;;5042798;28;20529;-72
2024/03/13 04:41:19;;;;;;;5.50;3.03;;;6.80;89.90;;;;;;5043279;28;20875;-71
2024/03/13 04:43:47;;;;;;;3.00;2.13;;;6.70;89.70;;;;;;5048929;28;20550;-70
2024/03/13 04:46:15;;;;;;;3.03;2.23;;;6.70;89.60;;;;;;5049863;28;20189;-74
2024/03/13 04:48:40;;;;;;;3.47;2.20;;;6.60;89.70;;;;;;5047999;28;20512;-73
2024/03/13 04:51:07;;;;;;;3.70;2.57;;;6.60;89.70;;;;;;5045251;28;20513;-72
2024/03/13 04:53:33;;;;;;;3.70;2.30;;;6.60;89.70;;;;;;5049901;28;20181;-73
2024/03/13 04:55:59;;;;;;;3.70;2.50;;;6.70;89.70;;;;;;5049720;28;20526;-71
2024/03/13 04:58:25;;;;;;;4.20;2.53;;;6.80;89.90;;;;;;5050126;28;20177;-73
2024/03/13 05:00:51;;;;;;;3.50;2.07;;;6.80;89.70;;;;;;5046316;28;20482;-71
2024/03/13 05:03:17;;;;;;;3.60;2.00;;;6.80;89.60;;;;;;5044515;28;20342;-73
2024/03/13 05:05:45;;;;;;;2.20;2.00;;;6.80;89.60;;;;;;5050093;28;20451;-72
2024/03/13 05:08:11;;;;;;;3.53;2.47;;;6.80;89.60;;;;;;5051168;28;20200;-71
2024/03/13 05:10:37;;;;;;;4.63;2.90;;;6.90;89.70;;;;;;5047657;28;20433;-75
2024/03/13 05:13:02;;;;;;;4.63;2.80;;;6.90;89.70;;;;;;5045246;28;20614;-73
2024/03/13 05:15:28;;;;;;;4.57;2.23;;;7.00;89.70;;;;;;5044700;28;20209;-72
2024/03/13 05:17:55;;;;;;;4.00;2.93;;;7.00;89.70;;;;;;5050475;28;20184;-72
2024/03/13 05:20:22;;;;;;;5.40;2.90;;;7.10;89.70;;;;;;5049467;28;20269;-74
2024/03/13 05:22:48;;;;;;;4.50;2.90;;;7.10;89.70;;;;;;5043556;28;20581;-72
2024/03/13 05:25:19;;;;;;;5.57;2.63;;;7.10;89.70;;;;;;5049192;28;20520;-72
2024/03/13 05:27:46;;;;;;;5.33;2.90;;;7.00;89.60;;;;;;5050958;28;20192;-72
2024/03/13 05:30:12;;;;;;;4.00;3.20;;;7.00;89.70;;;;;;5053161;28;20455;-74
2024/03/13 05:32:37;;;;;;;5.80;3.30;;;7.10;89.70;;;;;;5051559;28;20475;-73
2024/03/13 05:35:06;;;;;;;5.20;3.00;;;7.10;89.60;;;;;;5050298;28;20430;-72
2024/03/13 05:37:33;;;;;;;4.47;3.07;;;7.10;89.60;;;;;;5046955;28;20180;-73
2024/03/13 05:40:01;;;;;;;3.87;2.67;;;7.10;89.60;;;;;;5043404;28;20711;-72
2024/03/13 05:42:27;;;;;;;5.40;3.37;;;7.10;89.60;;;;;;5041098;28;20524;-73
2024/03/13 05:44:53;;;;;;;5.53;3.27;;;7.20;89.60;;;;;;5046243;28;20427;-72
2024/03/13 05:47:20;;;;;;;4.90;2.80;;;7.20;89.60;;;;;;5049956;28;20873;-72
2024/03/13 05:49:45;;;;;;;5.20;3.50;;;7.30;89.70;;;;;;5050765;28;20859;-73
2024/03/13 05:52:11;;;;;;;4.37;3.03;;;7.30;89.60;;;;;;5044820;28;20562;-73
2024/03/13 05:54:37;;;;;;;5.87;3.40;;;7.30;89.60;;;;;;5045006;28;20184;-72
2024/03/13 05:57:02;;;;;;;5.53;3.60;;;7.40;89.50;;;;;;5051478;28;20184;-73
2024/03/13 05:59:28;;;;;;;6.17;3.40;;;7.30;89.50;;;;;;5050256;28;20237;-72
2024/03/13 06:01:55;;;;;;;5.57;3.37;;;7.40;89.50;;;;;;5045761;28;20234;-72
2024/03/13 06:04:21;;;;;;;8.00;4.23;;;7.40;89.50;;;;;;5047043;28;20177;-73
2024/03/13 06:06:51;;;;;;;5.70;3.97;;;7.30;89.30;;;;;;5047659;28;20438;-72
2024/03/13 06:09:17;;;;;;;5.40;3.20;;;7.20;89.30;;;;;;5051328;28;20888;-73
2024/03/13 06:11:42;;;;;;;5.90;3.73;;;7.20;89.30;;;;;;5044313;28;20537;-73
2024/03/13 06:14:08;;;;;;;6.43;4.20;;;7.30;89.60;;;;;;5052670;28;20181;-75
2024/03/13 06:16:33;;;;;;;8.00;4.40;;;7.40;89.50;;;;;;5050166;28;20548;-74
2024/03/13 06:18:59;;;;;;;5.20;3.37;;;7.50;89.50;;;;;;5054252;28;20197;-73
2024/03/13 06:21:25;;;;;;;6.83;4.67;;;7.50;89.30;;;;;;5046741;28;20311;-73
2024/03/13 06:23:58;;;;;;;7.13;4.60;;;7.60;89.30;;;;;;5050574;28;20176;-74
2024/03/13 06:26:24;;;;;;;6.13;3.60;;;7.70;89.20;;;;;;5049828;28;21140;-73
2024/03/13 06:31:40;;;;;;;9.37;4.37;;;7.80;88.70;;;;;;5039028;28;20833;-75
2024/03/13 06:34:08;;;;;;;8.27;4.50;;;7.80;88.40;;;;;;5052001;28;20961;-73
2024/03/13 06:36:39;;;;;;;10.20;5.20;;;7.80;88.40;;;;;;5049425;28;20494;-74
2024/03/13 06:39:04;;;;;;;6.67;4.17;;;7.70;88.30;;;;;;5050811;28;20458;-73
2024/03/13 06:41:30;;;;;;;7.90;4.77;;;7.70;88.30;;;;;;5046209;28;21378;-73
2024/03/13 06:43:56;;;;;;;7.50;4.30;;;7.70;88.30;;;;;;5053266;28;20434;-73
2024/03/13 06:46:24;;;;;;;8.63;5.03;;;7.70;88.30;;;;;;5055968;28;20173;-72
2024/03/13 06:48:50;;;;;;;11.10;5.40;;;7.80;88.40;;;;;;5061056;28;20574;-72
2024/03/13 06:51:16;;;;;;;8.87;5.20;;;7.80;88.60;;;;;;5052696;28;20454;-71
2024/03/13 06:53:41;;;;;;;8.53;5.07;;;7.90;88.60;;;;;;5057247;28;20493;-73
2024/03/13 06:56:07;;;;;;;7.27;4.23;;;7.90;88.60;;;;;;5059602;28;20185;-71
2024/03/13 06:58:33;;;;;;;10.67;4.80;;;7.90;88.60;;;;;;5052967;28;20434;-72
2024/03/13 07:00:58;;;;;;;9.53;5.03;;;8.00;88.70;;;;;;5041918;28;20239;-73
2024/03/13 07:03:24;;;;;;;7.23;4.33;;;8.00;88.60;;;;;;5051247;28;20188;-71
2024/03/13 07:05:51;;;;;;;8.97;4.63;;;8.00;88.70;;;;;;5048072;28;20224;-72
2024/03/13 07:08:18;;;;;;;7.60;4.10;;;8.10;88.60;;;;;;5054211;28;20443;-74
2024/03/13 07:10:44;;;;;;;7.93;4.37;;;8.20;88.60;;;;;;5049032;28;20483;-72
2024/03/13 07:13:09;;;;;;;6.93;3.90;;;8.30;88.60;;;;;;5051292;28;20431;-71
2024/03/13 07:15:35;;;;;;;7.77;4.67;;;8.50;88.40;;;;;;5049989;28;20457;-71
2024/03/13 07:18:03;;;;;;;6.87;4.27;;;8.60;88.40;;;;;;5051269;28;20192;-72
2024/03/13 07:20:29;;;;;;;7.77;4.03;;;8.70;88.10;;;;;;5052389;28;20204;-73
2024/03/13 07:22:54;;;;;;;6.20;3.50;;;8.70;88.00;;;;;;5051205;28;20497;-73
2024/03/13 07:25:20;;;;;;;6.87;3.80;;;8.90;87.80;;;;;;5060630;28;20182;-71
2024/03/13 07:27:45;;;;;;;5.13;3.00;;;8.90;87.60;;;;;;5059355;28;20213;-72
2024/03/13 07:30:13;;;;;;;6.23;3.43;;;9.00;87.60;;;;;;5063222;28;20208;-74
2024/03/13 07:32:41;;;;;;;4.90;3.60;;;9.10;87.30;;;;;;5055825;28;20633;-73
2024/03/13 07:35:14;;;;;;;6.23;3.80;;;9.30;87.00;;;;;;5060237;28;20427;-73
2024/03/13 07:37:39;;;;;;;4.93;3.20;;;9.30;86.50;;;;;;5063182;28;20994;-73
2024/03/13 07:40:06;;;;;;;6.00;3.30;;;9.20;86.00;;;;;;5063855;28;20430;-74
2024/03/13 07:42:32;;;;;;;6.37;3.33;;;9.20;85.90;;;;;;5054160;28;20580;-73
2024/03/13 07:44:57;;;;;;;6.60;3.20;;;9.40;85.70;;;;;;5051355;28;20431;-73
2024/03/13 07:47:23;;;;;;;4.50;3.07;;;9.40;85.30;;;;;;5052363;28;20838;-72
2024/03/13 07:49:49;;;;;;;5.97;2.90;;;9.30;85.00;;;;;;5052670;28;20253;-71
2024/03/13 07:52:15;;;;;;;4.63;3.20;;;9.30;85.20;;;;;;5043737;28;20483;-73
2024/03/13 07:54:41;;;;;;;4.70;3.30;;;9.30;85.30;;;;;;5052367;28;20427;-74
2024/03/13 07:57:08;;;;;;;10.53;3.27;;;9.40;85.60;;;;;;5052032;28;20514;-72
2024/03/13 07:59:34;;;;;;;6.17;3.20;;;9.40;85.60;;;;;;5052914;28;20709;-73
2024/03/13 08:02:00;;;;;;;5.90;2.90;;;9.50;85.70;;;;;;5051846;28;20872;-73
2024/03/13 08:04:26;;;;;;;4.50;2.87;;;9.60;85.70;;;;;;5054259;28;20439;-72
2024/03/13 08:06:55;;;;;;;6.03;3.50;;;9.60;85.60;;;;;;5055178;28;20189;-73
2024/03/13 08:09:28;;;;;;;5.37;3.30;;;9.70;85.60;;;;;;5049869;28;20188;-73
2024/03/13 08:11:54;;;;;;;5.10;3.07;;;9.80;85.60;;;;;;5044743;28;20447;-74
2024/03/13 08:14:21;;;;;;;7.07;3.43;;;9.60;85.20;;;;;;5047783;28;20992;-70
2024/03/13 08:16:47;;;;;;;5.30;3.00;;;9.70;85.20;;;;;;5051389;28;20422;-72
2024/03/13 08:19:12;;;;;;;6.83;2.67;;;9.80;85.20;;;;;;5051370;28;20449;-72
2024/03/13 08:21:38;;;;;;;6.67;3.33;;;9.80;85.00;;;;;;5043425;28;20224;-73
2024/03/13 08:24:04;;;;;;;6.23;3.90;;;9.80;85.00;;;;;;5051019;28;20184;-73
2024/03/13 08:26:29;;;;;;;6.50;3.10;;;9.90;84.90;;;;;;5050499;28;20646;-74
2024/03/13 08:28:56;;;;;;;6.23;3.80;;;9.90;84.90;;;;;;5050938;28;20177;-71
2024/03/13 08:31:23;;;;;;;6.83;3.70;;;9.80;84.70;;;;;;5047113;28;20274;-73
2024/03/13 08:33:48;;;;;;;4.70;3.50;;;9.80;84.70;;;;;;5049547;28;20442;-73
2024/03/13 08:36:15;;;;;;;5.80;3.93;;;9.90;85.00;;;;;;5047960;28;20807;-73
2024/03/13 08:38:41;;;;;;;6.50;3.50;;;10.00;84.60;;;;;;5050322;28;20514;-73
2024/03/13 08:41:06;;;;;;;5.93;3.80;;;9.90;83.80;;;;;;5047570;28;20987;-72
2024/03/13 08:43:32;;;;;;;7.40;4.63;;;9.90;84.10;;;;;;5052451;28;20518;-72
2024/03/13 08:45:58;;;;;;;8.20;4.43;;;9.90;84.60;;;;;;5050363;28;20268;-72
2024/03/13 08:48:26;;;;;;;7.10;4.37;;;10.00;84.60;;;;;;5049865;28;20184;-73
2024/03/13 08:50:52;;;;;;;7.77;4.30;;;10.10;85.00;;;;;;5050990;28;20308;-72
2024/03/13 08:53:18;;;;;;;8.30;5.30;;;10.30;84.40;;;;;;5059102;28;20830;-73
2024/03/13 08:55:43;;;;;;;7.50;4.60;;;10.30;84.30;;;;;;5057412;28;20431;-72
2024/03/13 08:58:09;;;;;;;7.70;4.30;;;10.50;84.40;;;;;;5056800;28;20181;-73
2024/03/13 09:00:35;;;;;;;7.50;4.07;;;10.70;84.30;;;;;;5050099;28;20551;-72
2024/03/13 09:03:01;;;;;;;5.10;3.27;;;10.70;83.30;;;;;;5042919;28;20220;-72
2024/03/13 09:05:28;;;;;;;6.07;3.83;;;10.50;83.30;;;;;;5049120;28;20191;-73
2024/03/13 09:07:54;;;;;;;5.10;3.47;;;10.50;83.80;;;;;;5044417;28;20504;-71
2024/03/13 09:10:20;;;;;;;4.23;2.90;;;10.50;84.30;;;;;;5045432;28;20469;-71
2024/03/13 09:12:46;;;;;;;3.33;2.57;;;10.40;84.10;;;;;;5043516;28;20466;-73
2024/03/13 09:15:13;;;;;;;4.70;3.20;;;10.40;84.60;;;;;;5049428;28;20415;-72
2024/03/13 09:17:39;;;;;;;3.73;2.60;;;10.30;84.90;;;;;;5051013;28;20189;-71
2024/03/13 09:20:05;;;;;;;4.77;2.47;;;10.30;85.30;;;;;;5047883;28;20485;-74
2024/03/13 09:22:31;;;;;;;4.60;2.60;;;10.30;85.30;;;;;;5041787;28;20471;-73
2024/03/13 09:24:56;;;;;;;4.43;2.47;;;10.40;85.60;;;;;;5049973;28;21104;-73
2024/03/13 09:27:22;;;;;;;3.37;2.30;;;10.40;85.70;;;;;;5050505;28;20181;-73
2024/03/13 09:29:48;;;;;;;2.37;1.73;;;10.50;85.90;;;;;;5049924;28;20184;-72
2024/03/13 09:32:13;;;;;;;2.10;1.73;;;10.50;85.70;;;;;;5043957;28;20277;-71
2024/03/13 09:34:39;;;;;;;4.03;2.27;;;10.60;85.70;;;;;;5047556;28;20196;-72
2024/03/13 09:37:07;;;;;;;2.87;2.07;;;10.60;85.90;;;;;;5051334;28;20204;-71
2024/03/13 09:39:32;;;;;;;3.00;1.97;;;10.50;86.00;;;;;;5051857;28;20665;-74
2024/03/13 09:41:59;;;;;;;2.43;1.73;;;10.60;86.50;;;;;;5048238;28;20473;-72
2024/03/13 09:44:29;;;;;;;1.97;1.50;;;10.70;86.30;;;;;;5049744;28;20601;-74
2024/03/13 09:46:57;;;;;;;3.13;2.20;;;10.80;86.30;;;;;;5052553;28;20515;-72
2024/03/13 09:49:27;;;;;;;2.40;1.70;;;10.90;86.30;;;;;;5054777;28;20936;-72
2024/03/13 09:51:53;;;;;;;3.33;1.70;;;11.00;86.30;;;;;;5042448;28;20542;-72
2024/03/13 09:54:19;;;;;;;2.07;1.50;;;11.20;86.00;;;;;;5051680;28;20857;-73
2024/03/13 09:56:47;;;;;;;1.77;1.50;;;11.10;85.60;;;;;;5052205;28;20451;-73
2024/03/13 09:59:13;;;;;;;1.60;1.33;;;11.10;85.50;;;;;;5051585;28;20954;-74
2024/03/13 10:01:51;;;;;;;3.20;1.20;;;11.10;85.20;;;;;;5049149;28;20470;-73
2024/03/13 10:04:24;;;;;;;1.40;1.20;;;11.10;85.20;;;;;;5041444;28;20513;-73
2024/03/13 10:06:53;;;;;;;1.60;1.10;;;11.10;85.50;;;;;;5046227;28;20453;-72
2024/03/13 10:09:26;;;;;;;3.60;1.10;;;11.20;85.70;;;;;;5047094;28;20442;-71
2024/03/13 10:11:51;;;;;;;3.13;1.40;;;11.40;85.90;;;;;;5047613;28;20475;-72
2024/03/13 10:14:22;;;;;;;1.97;1.30;;;11.50;85.50;;;;;;5051965;28;20879;-72
2024/03/13 10:16:52;;;;;;;2.97;1.70;;;11.70;85.20;;;;;;5050202;28;20185;-72
2024/03/13 10:19:21;;;;;;;5.23;1.60;;;11.70;84.90;;;;;;5048443;28;20457;-73
2024/03/13 10:21:47;;;;;;;2.80;1.93;;;11.80;84.40;;;;;;5045447;28;20486;-73
2024/03/13 10:24:15;;;;;;;1.50;1.13;;;11.80;84.10;;;;;;5053462;28;20649;-72
2024/03/13 10:26:45;;;;;;;1.70;1.50;;;11.70;82.80;;;;;;5052248;28;20267;-74
2024/03/13 10:29:11;;;;;;;1.73;1.40;;;11.60;83.60;;;;;;5053299;28;20419;-74
2024/03/13 10:31:38;;;;;;;2.97;1.17;;;11.60;84.00;;;;;;5048091;28;20955;-73
2024/03/13 10:34:04;;;;;;;1.60;1.20;;;11.50;83.60;;;;;;5048669;28;20468;-72
2024/03/13 10:36:29;;;;;;;1.20;1.03;;;11.40;84.00;;;;;;5048573;28;20537;-73
2024/03/13 10:39:02;;;;;;;1.50;1.30;;;11.30;84.30;;;;;;5050621;28;20761;-73
2024/03/13 10:41:31;;;;;;;1.40;1.10;;;11.40;84.70;;;;;;5047797;28;20289;-72
2024/03/13 10:43:56;;;;;;;2.60;1.40;;;11.50;84.70;;;;;;5058650;28;20442;-72
2024/03/13 10:46:23;;;;;;;2.30;1.30;;;11.60;84.60;;;;;;5056412;28;20919;-72
2024/03/13 10:48:49;;;;;;;2.13;1.30;;;11.50;84.40;;;;;;5052187;28;20192;-71
2024/03/13 10:51:14;;;;;;;2.80;1.30;;;11.50;84.70;;;;;;5048871;28;20535;-71
2024/03/13 10:53:44;;;;;;;4.70;1.90;;;11.70;84.90;;;;;;5053459;28;20423;-70
2024/03/13 10:56:13;;;;;;;1.93;1.47;;;11.80;84.30;;;;;;5054658;28;20266;-72
2024/03/13 10:58:39;;;;;;;4.23;1.67;;;12.00;84.30;;;;;;5054347;28;20446;-75
2024/03/13 11:01:05;;;;;;;3.13;1.80;;;11.90;83.80;;;;;;5048312;28;20517;-72
2024/03/13 11:03:31;;;;;;;2.87;1.70;;;12.00;84.10;;;;;;5050985;28;20264;-71
2024/03/13 11:05:57;;;;;;;3.03;1.83;;;11.80;84.30;;;;;;5049778;28;20503;-71
2024/03/13 11:08:26;;;;;;;3.00;1.60;;;11.90;84.60;;;;;;5046956;28;20520;-73
2024/03/13 11:10:53;;;;;;;2.03;1.53;;;12.00;84.90;;;;;;5047109;28;20473;-73
2024/03/13 11:13:24;;;;;;;3.40;2.07;;;12.10;85.00;;;;;;5050051;28;20536;-73
2024/03/13 11:15:55;;;;;;;2.87;1.70;;;12.10;84.70;;;;;;5051690;28;20477;-71
2024/03/13 11:18:23;;;;;;;4.67;2.37;;;12.00;84.90;;;;;;5050818;28;20491;-71
2024/03/13 11:20:58;;;;;;;8.63;2.43;;;11.90;85.20;;;;;;5047685;28;20493;-73
2024/03/13 11:23:29;;;;;;;3.67;1.90;;;11.80;85.70;;;;;;5053781;28;20474;-73
2024/03/13 11:26:03;;;;;;;3.13;1.93;;;11.90;86.30;;;;;;5054000;28;20435;-72
2024/03/13 11:28:30;;;;;;;4.43;2.13;;;12.00;86.30;;;;;;5053598;28;20510;-73
2024/03/13 11:30:57;;;;;;;3.67;2.07;;;11.80;86.30;;;;;;5051329;28;20470;-74
2024/03/13 11:33:24;;;;;;;2.93;2.00;;;11.70;86.60;;;;;;5053242;28;20459;-71
2024/03/13 11:35:52;;;;;;;5.53;2.70;;;11.80;87.00;;;;;;5041611;28;20483;-73
2024/03/13 11:38:18;;;;;;;7.80;2.33;;;11.90;87.10;;;;;;5053006;28;20506;-74
2024/03/13 11:40:45;;;;;;;4.50;2.27;;;12.00;87.30;;;;;;5051072;28;20446;-74
2024/03/13 11:43:19;;;;;;;5.33;2.60;;;12.20;87.30;;;;;;5048964;28;20863;-72
2024/03/13 11:45:44;;;;;;;4.30;2.43;;;12.30;87.10;;;;;;5050443;28;20439;-71
2024/03/13 11:48:18;;;;;;;3.87;2.73;;;12.30;86.90;;;;;;5054304;28;20822;-72
2024/03/13 11:51:05;;;;;;;6.87;3.03;;;12.30;86.60;;;;;;5055475;28;20703;-71
2024/03/13 11:53:35;;;;;;;5.03;3.17;;;12.30;86.80;;;;;;5048756;28;20477;-72
2024/03/13 11:56:09;;;;;;;4.27;2.60;;;12.30;86.90;;;;;;5049537;28;20497;-72
2024/03/13 11:58:38;;;;;;;3.73;2.30;;;12.20;86.90;;;;;;5051292;28;20968;-73
2024/03/13 12:01:07;;;;;;;3.57;3.13;;;12.40;87.00;;;;;;5046194;28;20515;-72
2024/03/13 12:03:39;;;;;;;4.63;2.83;;;12.40;86.80;;;;;;5051954;28;20558;-71
2024/03/13 12:06:07;;;;;;;3.00;2.50;;;12.40;86.50;;;;;;5052240;28;20485;-73
2024/03/13 12:08:34;;;;;;;3.77;3.10;;;12.30;86.50;;;;;;5051607;28;20430;-72
2024/03/13 12:11:00;;;;;;;11.40;5.60;;;12.20;86.60;;;;;;5044089;28;20452;-72
2024/03/13 12:13:30;;;;;;;10.60;5.57;;;11.90;87.10;;;;;;5045640;28;20433;-70
2024/03/13 12:15:58;;;;;;;6.53;4.40;;;11.80;87.70;;;;;;5047303;28;20191;-72
2024/03/13 12:18:25;;;;;;;5.70;4.20;;;12.00;88.10;;;;;;5050918;28;20419;-72
2024/03/13 12:20:54;;;;;;;7.93;4.40;;;12.10;88.40;;;;;;5044540;28;20501;-73
2024/03/13 12:23:23;;;;;;;5.87;4.60;;;12.20;88.30;;;;;;5050310;28;20467;-72
2024/03/13 12:25:49;;;;;;;6.23;3.87;;;12.20;88.30;;;;;;5055553;28;20407;-73
2024/03/13 12:28:21;;;;;;;6.63;3.70;;;12.20;88.10;;;;;;5053045;28;20466;-72
2024/03/13 12:30:49;;;;;;;4.83;3.40;;;12.30;88.00;;;;;;5046233;28;21622;-74
2024/03/13 12:33:15;;;;;;;4.37;3.50;;;12.40;88.00;;;;;;5050642;28;20444;-73
2024/03/13 12:35:49;;;;;;;7.53;4.60;;;12.40;87.80;;;;;;5048695;28;20446;-73
2024/03/13 12:38:15;;;;;;;4.97;3.80;;;12.60;87.80;;;;;;5051706;28;20908;-72
2024/03/13 12:40:44;;;;;;;5.40;3.60;;;12.70;87.60;;;;;;5052217;28;20443;-73
2024/03/13 12:43:10;;;;;;;5.20;3.50;;;12.90;87.40;;;;;;5049011;28;20582;-73
2024/03/13 12:45:37;;;;;;;6.60;3.37;;;12.60;86.50;;;;;;5047788;28;20442;-74
2024/03/13 12:48:03;;;;;;;5.70;3.40;;;12.80;86.80;;;;;;5046536;28;20508;-71
2024/03/13 12:50:29;;;;;;;7.90;3.00;;;13.00;86.60;;;;;;5049625;28;20458;-73
2024/03/13 12:52:57;;;;;;;6.13;3.30;;;13.20;86.20;;;;;;5047898;28;20471;-71
2024/03/13 12:55:23;;;;;;;8.53;4.27;;;13.30;85.90;;;;;;5049512;28;20176;-71
2024/03/13 12:57:50;;;;;;;6.77;3.23;;;13.30;85.50;;;;;;5050102;28;20431;-72
2024/03/13 13:00:18;;;;;;;7.23;3.90;;;13.40;85.30;;;;;;5047490;28;20445;-70
2024/03/13 13:02:51;;;;;;;4.83;2.90;;;13.30;85.00;;;;;;5045623;28;20478;-73
2024/03/13 13:05:17;;;;;;;4.23;2.07;;;12.90;84.60;;;;;;5046839;28;20443;-72
2024/03/13 13:07:52;;;;;;;2.57;1.90;;;12.60;85.30;;;;;;5052721;28;20443;-72
2024/03/13 13:10:24;;;;;;;3.30;2.20;;;12.30;86.20;;;;;;5049536;28;20214;-71